Terminal Aerodrome Forecast
Issued by NWS

Home | Current Version | Previous Version | Text Only | Print | Product List | Glossary On
Versions: 1 2 3 4 5 6 7 8 9 10 11 12 13
094
FTUS42 KTBW 110538
TAFPIE
TAF
KPIE 110538Z 1106/1206 06008KT P6SM SCT040
     FM111600 10010KT P6SM SCT025 BKN050
     FM120200 08007KT P6SM BKN025=

USA.gov is the U.S. government's official web portal to all federal, state and local government web resources and services.